Aérodrome :
LOGIN :

S'inscrire | Disclaimer

   EN    FR    IT 

 










Légende :    VFR   VFR Marginal   IFR   IFR Intensif   IFR Très Intensif
Visi : 
Plafond : 
>= 8 km
>= 3000ft
5 à 8 km
1000 à 3000 ft
1500m à 5 km
500 à 1000 ft
800 à 1500m
200 à 500 ft
< 800m
< 200 ft
Symboles :   Orages  Brouillard  Fortes neiges  Fortes précipitations  Vent > 20 kt
SIGMETs :   Divers  Orages  Givrage  Turbulence  Onde Orograph.  Cendres Volcan.






- Altitude de l'aérodrome : 102 ft
- Code IATA : CNG


LFBG - Cognac

DERNIER METAR :
  • 261730Z AUTO 28008KT CAVOK 09/03 Q1018 NOSIG

METARs EXPIRÉS :
  • 261700Z AUTO 27008KT 9999 FEW036 BKN072 09/04 Q1018 NOSIG
  • 261630Z AUTO 28009KT CAVOK 09/03 Q1017 NOSIG
  • 261600Z AUTO 28013KT CAVOK 10/03 Q1017 TEMPO 27015G25KT
  • 261530Z AUTO 28014KT 9999 FEW038 BKN180 10/03 Q1017 TEMPO 27015G25KT
  • 261500Z AUTO 28016KT 9999 BKN041 BKN200 OVC230 10/02 Q1017 TEMPO 27015G25KT

TAF TAF LFBG
Valide du 26 à 15h jusqu'au 27 à 15h UTC


261400Z 2615/2715 27010KT 9999 SCT040 SCT050
TEMPO 2615/2617 27015G25KT
BECMG 2701/2703 18015G27KT BKN012
TEMPO 2704/2711 3000 RA OVC004
BECMG 2707/2709 27020G30KT
PROB40
TEMPO 2708/2715 28022G40KT
BECMG 2711/2713 BKN020



MET'MAP, la Météo Aéronautique d'un coup d'oeil ! - Copyright ORBIFLY Décembre 2007 - Disclaimer

ORBIFLY MET'MAP TEAM :

Programmation & Développement : Alexandra Zaïnal
Sur une idée originale de : Baudouin d'Aumeries
Assistance à la programmation : Marc-Olivier Méhu
Soutien technique & logistique : Manuel Goepfert

Contact : metmap@orbifly.com




SOURCES & CREDITS :

   NOAA